Time;durP1;ratioP1;P1;durP2;ratioP2;P2;SDS_P1;SDS_P2;PMS_P1;PMS_P2;Temp;Humidity;BMP_temperature;BMP_pressure;BME280_temperature;BME280_humidity;BME280_pressure;Samples;Min_cycle;Max_cycle;Signal;HPM_P1;HPM_P2
2023/06/07 00:00:51;;;;;;;6.47;4.22;;;19.60;92.20;;;;;;5049836;28;20041;-56
2023/06/07 00:03:16;;;;;;;4.47;3.42;;;19.60;92.30;;;;;;5018834;28;20412;-56
2023/06/07 00:05:43;;;;;;;8.93;3.92;;;19.50;92.30;;;;;;5020903;28;20397;-56
2023/06/07 00:08:09;;;;;;;9.32;4.55;;;19.40;92.40;;;;;;5020348;28;20070;-56
2023/06/07 00:10:36;;;;;;;9.20;4.20;;;19.40;92.50;;;;;;5017832;28;20042;-56
2023/06/07 00:13:03;;;;;;;6.68;3.90;;;19.40;92.50;;;;;;5016028;28;20049;-56
2023/06/07 00:15:29;;;;;;;7.95;3.80;;;19.40;92.60;;;;;;5015245;28;20100;-56
2023/06/07 00:17:59;;;;;;;7.32;4.22;;;19.30;92.60;;;;;;5012433;28;20041;-56
2023/06/07 00:20:26;;;;;;;7.05;4.45;;;19.30;92.80;;;;;;5014629;28;20737;-56
2023/06/07 00:22:55;;;;;;;8.82;5.57;;;19.20;92.90;;;;;;5019887;28;20515;-55
2023/06/07 00:25:21;;;;;;;7.50;4.93;;;19.10;93.10;;;;;;5020327;28;20599;-56
2023/06/07 00:27:47;;;;;;;9.48;4.55;;;19.20;93.20;;;;;;5003494;28;20447;-56
2023/06/07 00:30:14;;;;;;;7.22;4.57;;;19.10;93.30;;;;;;5020075;28;20376;-55
2023/06/07 00:32:39;;;;;;;8.45;4.88;;;19.10;93.50;;;;;;5017747;28;20579;-56
2023/06/07 00:35:07;;;;;;;8.18;4.82;;;19.00;93.50;;;;;;5019168;28;20050;-56
2023/06/07 00:37:33;;;;;;;8.00;4.95;;;19.00;93.70;;;;;;5033585;28;20046;-56
2023/06/07 00:39:59;;;;;;;10.88;5.63;;;19.00;93.90;;;;;;5019267;28;20889;-56
2023/06/07 00:42:24;;;;;;;6.35;4.75;;;18.90;94.10;;;;;;5017036;28;20509;-56
2023/06/07 00:44:50;;;;;;;11.32;5.47;;;18.90;94.20;;;;;;5019645;28;20529;-56
2023/06/07 00:47:17;;;;;;;11.50;5.95;;;18.80;94.40;;;;;;5018260;28;20061;-55
2023/06/07 00:49:44;;;;;;;11.40;5.85;;;18.80;94.40;;;;;;5019782;28;20117;-56
2023/06/07 00:52:11;;;;;;;10.95;5.93;;;18.80;94.70;;;;;;5018784;28;20536;-56
2023/06/07 00:54:37;;;;;;;8.45;5.28;;;18.80;95.00;;;;;;5017498;28;20048;-56
2023/06/07 00:57:05;;;;;;;9.07;5.72;;;18.70;94.90;;;;;;5017663;28;20789;-56
2023/06/07 00:59:31;;;;;;;11.82;7.32;;;18.80;95.00;;;;;;5020303;28;20046;-57
2023/06/07 01:01:57;;;;;;;11.13;6.05;;;18.70;95.20;;;;;;5018816;28;20060;-56
2023/06/07 01:04:24;;;;;;;9.52;5.60;;;18.70;95.20;;;;;;5022750;28;20487;-56
2023/06/07 01:06:52;;;;;;;13.48;6.53;;;18.60;95.50;;;;;;5016896;28;20626;-56
2023/06/07 01:09:19;;;;;;;11.30;6.65;;;18.60;95.60;;;;;;5020617;28;20056;-56
2023/06/07 01:11:49;;;;;;;10.82;5.63;;;18.60;95.80;;;;;;5016465;28;20683;-57
2023/06/07 01:14:17;;;;;;;12.05;6.20;;;18.50;95.90;;;;;;5016106;28;20416;-56
2023/06/07 01:16:44;;;;;;;10.52;6.78;;;18.50;96.10;;;;;;5017033;28;20489;-56
2023/06/07 01:19:23;;;;;;;11.55;6.78;;;18.50;96.30;;;;;;5014301;28;20566;-56
2023/06/07 01:21:51;;;;;;;14.90;7.25;;;18.50;96.80;;;;;;5012173;28;20402;-56
2023/06/07 01:24:18;;;;;;;14.75;7.43;;;18.40;96.70;;;;;;5012869;28;20053;-56
2023/06/07 01:26:46;;;;;;;19.30;7.43;;;18.40;96.60;;;;;;5016516;28;20096;-56
2023/06/07 01:29:12;;;;;;;14.95;8.50;;;18.40;96.70;;;;;;5018331;28;20468;-57
2023/06/07 01:31:39;;;;;;;17.75;7.38;;;18.40;96.80;;;;;;5020492;28;20042;-56
2023/06/07 01:34:07;;;;;;;13.07;6.80;;;18.30;96.80;;;;;;5015146;28;20145;-56
2023/06/07 01:36:34;;;;;;;17.38;7.18;;;18.30;97.10;;;;;;5016896;28;20127;-56
2023/06/07 01:39:01;;;;;;;14.07;7.60;;;18.30;97.10;;;;;;5017728;28;20121;-56
2023/06/07 01:41:29;;;;;;;21.38;8.18;;;18.30;97.20;;;;;;5017906;28;20217;-56
2023/06/07 01:43:59;;;;;;;15.52;8.25;;;18.20;97.30;;;;;;5017277;28;20084;-56
2023/06/07 01:46:26;;;;;;;16.65;7.50;;;18.20;97.50;;;;;;5022161;28;20061;-56
2023/06/07 01:48:52;;;;;;;19.10;8.40;;;18.20;97.50;;;;;;5021424;28;20042;-56
2023/06/07 01:51:17;;;;;;;13.20;7.72;;;18.20;97.80;;;;;;5022378;28;20046;-56
2023/06/07 01:53:44;;;;;;;12.50;8.30;;;18.10;97.70;;;;;;5018974;28;20160;-56
2023/06/07 01:56:40;;;;;;;12.18;6.88;;;18.10;97.90;;;;;;5021515;28;20060;-56
2023/06/07 01:59:08;;;;;;;12.52;7.28;;;18.10;98.00;;;;;;5018984;28;20042;-56
2023/06/07 02:01:44;;;;;;;18.08;7.55;;;18.00;98.10;;;;;;5018347;28;20049;-56
2023/06/07 02:04:14;;;;;;;23.35;9.13;;;18.00;98.30;;;;;;5022827;28;20552;-56
2023/06/07 02:06:43;;;;;;;15.85;7.03;;;17.90;98.40;;;;;;5021190;28;20061;-56
2023/06/07 02:09:12;;;;;;;13.70;7.63;;;17.90;98.50;;;;;;5020169;28;20053;-56
2023/06/07 02:11:39;;;;;;;19.83;8.55;;;17.90;98.60;;;;;;5022636;28;20172;-56
2023/06/07 02:14:06;;;;;;;19.65;8.77;;;17.80;98.80;;;;;;5022561;28;20366;-56
2023/06/07 02:16:35;;;;;;;11.85;6.45;;;17.70;98.80;;;;;;5021692;28;20037;-56
2023/06/07 02:19:06;;;;;;;16.33;9.32;;;17.70;99.10;;;;;;5023411;28;20045;-56
2023/06/07 02:21:36;;;;;;;16.33;7.70;;;17.70;99.10;;;;;;5021037;28;20476;-56
2023/06/07 02:24:08;;;;;;;17.38;8.60;;;17.40;99.30;;;;;;5019426;28;20052;-56
2023/06/07 02:26:36;;;;;;;21.27;9.80;;;17.60;99.70;;;;;;5022634;28;20143;-56
2023/06/07 02:29:03;;;;;;;19.70;7.75;;;17.60;99.90;;;;;;5020046;28;20573;-56
2023/06/07 02:31:29;;;;;;;14.07;8.77;;;17.60;99.90;;;;;;5022122;28;20037;-56
2023/06/07 02:33:55;;;;;;;19.42;8.27;;;17.50;99.90;;;;;;5021274;28;20066;-55
2023/06/07 02:36:21;;;;;;;13.65;7.93;;;17.50;99.90;;;;;;5022384;28;20042;-56
2023/06/07 02:38:48;;;;;;;16.05;7.75;;;17.50;99.90;;;;;;5017300;28;21780;-56
2023/06/07 02:41:14;;;;;;;18.73;8.60;;;17.50;99.90;;;;;;5020129;28;20072;-56
2023/06/07 02:43:40;;;;;;;20.83;10.30;;;17.50;99.90;;;;;;5020467;28;20683;-55
2023/06/07 02:46:06;;;;;;;23.13;9.63;;;17.50;99.90;;;;;;5021655;28;20124;-56
2023/06/07 02:48:32;;;;;;;27.50;9.07;;;17.50;99.90;;;;;;5019896;28;20461;-56
2023/06/07 02:50:58;;;;;;;21.73;9.25;;;17.40;99.90;;;;;;5021043;28;20045;-56
2023/06/07 02:53:24;;;;;;;16.50;8.48;;;17.40;99.90;;;;;;5021259;28;20496;-56
2023/06/07 02:55:50;;;;;;;18.80;9.20;;;17.40;99.90;;;;;;5018136;28;20132;-56
2023/06/07 02:58:16;;;;;;;13.32;7.95;;;17.30;99.90;;;;;;5002341;28;20038;-56
2023/06/07 03:00:46;;;;;;;19.33;9.25;;;17.30;99.90;;;;;;5017386;28;20084;-56
2023/06/07 03:03:12;;;;;;;17.55;8.82;;;17.30;99.90;;;;;;5012519;28;20081;-56
2023/06/07 03:05:40;;;;;;;15.15;8.82;;;17.30;99.90;;;;;;5011780;28;20067;-56
2023/06/07 03:08:10;;;;;;;16.35;9.88;;;17.20;99.90;;;;;;5015122;28;20056;-56
2023/06/07 03:10:36;;;;;;;20.92;10.27;;;17.20;99.90;;;;;;5018514;28;20556;-56
2023/06/07 03:13:02;;;;;;;15.48;9.00;;;17.20;99.90;;;;;;5010392;28;20518;-56
2023/06/07 03:15:28;;;;;;;20.00;7.85;;;17.20;99.90;;;;;;5019314;28;20045;-56
2023/06/07 03:17:54;;;;;;;18.50;8.23;;;17.10;99.90;;;;;;5018300;28;20053;-56
2023/06/07 03:20:21;;;;;;;13.50;9.20;;;17.10;99.90;;;;;;5011882;28;20049;-56
2023/06/07 03:22:47;;;;;;;19.67;8.50;;;17.10;99.90;;;;;;5014274;28;20125;-56
2023/06/07 03:25:13;;;;;;;22.63;9.95;;;17.00;99.90;;;;;;5015256;28;20058;-56
2023/06/07 03:27:39;;;;;;;21.07;10.60;;;17.00;99.90;;;;;;5016327;28;20498;-57
2023/06/07 03:30:06;;;;;;;19.20;10.07;;;17.00;99.90;;;;;;5020034;28;20061;-56
2023/06/07 03:32:32;;;;;;;13.55;9.13;;;17.00;99.90;;;;;;5017257;28;20050;-56
2023/06/07 03:34:58;;;;;;;22.20;9.73;;;17.00;99.90;;;;;;5020167;28;21628;-56
2023/06/07 03:37:24;;;;;;;18.45;10.35;;;17.00;99.90;;;;;;5019628;28;20087;-56
2023/06/07 03:39:50;;;;;;;18.25;8.85;;;17.00;99.90;;;;;;5019019;28;20049;-56
2023/06/07 03:42:15;;;;;;;19.50;9.60;;;16.90;99.90;;;;;;5021315;28;20155;-55
2023/06/07 03:44:41;;;;;;;18.58;9.63;;;16.90;99.90;;;;;;5016891;28;20487;-56
2023/06/07 03:47:07;;;;;;;19.13;9.40;;;16.90;99.90;;;;;;5020447;28;20053;-56
2023/06/07 03:49:33;;;;;;;20.52;10.30;;;16.90;99.90;;;;;;5018210;28;20573;-56
2023/06/07 03:51:59;;;;;;;20.85;10.75;;;16.80;99.90;;;;;;5015218;28;20042;-56
2023/06/07 03:54:24;;;;;;;24.23;11.27;;;16.80;99.90;;;;;;5018287;28;20038;-56
2023/06/07 03:56:50;;;;;;;15.63;8.25;;;16.80;99.90;;;;;;5021893;28;20045;-56
2023/06/07 03:59:19;;;;;;;18.52;10.43;;;16.80;99.90;;;;;;5016281;28;20434;-56
2023/06/07 04:01:45;;;;;;;18.25;9.15;;;16.70;99.90;;;;;;5019208;28;20657;-55
2023/06/07 04:04:11;;;;;;;25.50;10.32;;;16.70;99.90;;;;;;5014540;28;20045;-56
2023/06/07 04:06:36;;;;;;;19.27;10.55;;;16.60;99.90;;;;;;5012624;28;21306;-56
2023/06/07 04:09:03;;;;;;;21.38;9.82;;;16.60;99.90;;;;;;5015230;28;20056;-56
2023/06/07 04:11:29;;;;;;;19.27;10.93;;;16.60;99.90;;;;;;5015370;28;20049;-56
2023/06/07 04:13:55;;;;;;;22.58;10.02;;;16.50;99.90;;;;;;5018005;28;20076;-56
2023/06/07 04:16:21;;;;;;;26.38;10.10;;;16.60;99.90;;;;;;5021184;28;20172;-56
2023/06/07 04:18:47;;;;;;;19.08;10.05;;;16.60;99.90;;;;;;5016709;28;20054;-56
2023/06/07 04:21:13;;;;;;;20.30;10.77;;;16.60;99.90;;;;;;5016494;28;20042;-56
2023/06/07 04:23:41;;;;;;;14.20;7.88;;;16.50;99.90;;;;;;5019803;28;20056;-56
2023/06/07 04:26:08;;;;;;;15.55;7.50;;;16.50;99.90;;;;;;5021056;28;20597;-56
2023/06/07 04:28:34;;;;;;;15.57;9.13;;;16.50;99.90;;;;;;5018214;28;20108;-57
2023/06/07 04:31:00;;;;;;;16.25;8.70;;;16.50;99.90;;;;;;5020761;28;20034;-56
2023/06/07 04:33:27;;;;;;;17.73;10.35;;;;;;;;;;5020598;28;20034;-56
2023/06/07 04:35:59;;;;;;;20.52;7.95;;;16.50;99.90;;;;;;5017018;28;20532;-56
2023/06/07 04:38:25;;;;;;;21.23;11.13;;;16.50;99.90;;;;;;5019410;28;20041;-56
2023/06/07 04:40:52;;;;;;;21.63;10.00;;;16.50;99.90;;;;;;5017161;28;20041;-56
2023/06/07 04:43:18;;;;;;;16.35;8.55;;;16.40;99.90;;;;;;5019567;28;20100;-56
2023/06/07 04:45:53;;;;;;;19.58;9.00;;;16.50;99.90;;;;;;5012815;28;20517;-58
2023/06/07 04:48:24;;;;;;;13.38;6.43;;;16.40;99.90;;;;;;5014736;28;20057;-56
2023/06/07 04:50:51;;;;;;;21.75;9.88;;;16.40;99.90;;;;;;5017868;28;20545;-56
2023/06/07 04:53:19;;;;;;;20.80;11.45;;;16.40;99.90;;;;;;5020461;28;20034;-56
2023/06/07 04:55:47;;;;;;;23.73;10.50;;;16.40;99.90;;;;;;5019187;28;20046;-56
2023/06/07 04:58:16;;;;;;;26.60;9.63;;;16.40;99.90;;;;;;5015245;28;20511;-56
2023/06/07 05:00:43;;;;;;;18.58;11.57;;;16.40;99.90;;;;;;5019939;28;20076;-59
2023/06/07 05:03:13;;;;;;;19.27;11.13;;;16.10;99.90;;;;;;5012877;28;20509;-56
2023/06/07 05:05:40;;;;;;;28.42;10.75;;;16.40;99.90;;;;;;5017306;28;20507;-56
2023/06/07 05:08:06;;;;;;;22.60;10.40;;;16.40;99.90;;;;;;5018769;28;20532;-56
2023/06/07 05:10:32;;;;;;;15.82;8.90;;;16.40;99.90;;;;;;5044380;28;20057;-56
2023/06/07 05:12:58;;;;;;;20.60;10.23;;;16.40;99.90;;;;;;5016929;28;20049;-56
2023/06/07 05:15:24;;;;;;;20.63;9.70;;;16.40;99.90;;;;;;5015133;28;20524;-56
2023/06/07 05:17:50;;;;;;;15.80;9.70;;;16.40;99.90;;;;;;5022278;28;20049;-56
2023/06/07 05:20:17;;;;;;;21.02;10.32;;;16.40;99.90;;;;;;5018689;28;20061;-56
2023/06/07 05:22:43;;;;;;;26.08;12.13;;;16.50;99.90;;;;;;5018788;28;20042;-56
2023/06/07 05:25:11;;;;;;;15.38;7.65;;;16.50;99.90;;;;;;5024679;28;20513;-56
2023/06/07 05:27:38;;;;;;;18.63;12.43;;;16.50;99.90;;;;;;5022408;28;20589;-56
2023/06/07 05:30:07;;;;;;;28.40;11.73;;;16.40;99.90;;;;;;5022363;28;20125;-56
2023/06/07 05:32:34;;;;;;;18.98;10.23;;;16.50;99.90;;;;;;5022834;28;20046;-57
2023/06/07 05:35:01;;;;;;;27.45;10.75;;;16.50;99.90;;;;;;5022662;28;20550;-56
2023/06/07 05:37:28;;;;;;;17.00;9.95;;;16.50;99.90;;;;;;5019710;28;20182;-56
2023/06/07 05:39:54;;;;;;;24.02;8.43;;;16.50;99.90;;;;;;5022304;28;20037;-56
2023/06/07 05:42:19;;;;;;;26.70;10.90;;;16.50;99.90;;;;;;5024874;28;20042;-56
2023/06/07 05:44:49;;;;;;;18.08;10.75;;;16.50;99.90;;;;;;5018046;28;20041;-56
2023/06/07 05:47:20;;;;;;;22.23;11.43;;;16.60;99.90;;;;;;5019715;28;20069;-56
2023/06/07 05:49:47;;;;;;;31.70;13.25;;;16.60;99.90;;;;;;5016184;28;20050;-56
2023/06/07 05:52:13;;;;;;;25.75;11.88;;;16.50;99.90;;;;;;5015018;28;20116;-56
2023/06/07 05:54:47;;;;;;;20.38;9.82;;;16.50;99.90;;;;;;5015234;28;20081;-56
2023/06/07 05:57:13;;;;;;;14.02;6.65;;;16.50;99.90;;;;;;5021628;28;20055;-54
2023/06/07 05:59:38;;;;;;;23.33;11.77;;;16.50;99.90;;;;;;5017370;28;20050;-55
2023/06/07 06:02:04;;;;;;;25.60;12.10;;;16.50;99.90;;;;;;5023181;28;20412;-55
2023/06/07 06:04:30;;;;;;;24.38;10.93;;;16.60;99.90;;;;;;5022233;28;20120;-54
2023/06/07 06:06:56;;;;;;;14.40;9.38;;;16.60;99.90;;;;;;5021982;28;20054;-55
2023/06/07 06:09:22;;;;;;;20.40;11.40;;;16.60;99.90;;;;;;5022772;28;20172;-55
2023/06/07 06:11:49;;;;;;;22.75;11.43;;;16.50;99.90;;;;;;5020765;28;20072;-55
2023/06/07 06:14:15;;;;;;;19.48;10.23;;;16.60;99.90;;;;;;5020053;28;20042;-54
2023/06/07 06:16:41;;;;;;;25.75;12.23;;;16.60;99.90;;;;;;5017908;28;20049;-55
2023/06/07 06:19:06;;;;;;;30.45;12.20;;;16.60;99.90;;;;;;5019506;28;20034;-55
2023/06/07 06:21:32;;;;;;;22.40;11.98;;;16.60;99.90;;;;;;5017706;28;20053;-54
2023/06/07 06:23:58;;;;;;;17.13;9.70;;;16.60;99.90;;;;;;5024318;28;20042;-55
2023/06/07 06:26:27;;;;;;;27.48;11.32;;;16.60;99.90;;;;;;5019509;28;20235;-55
2023/06/07 06:28:53;;;;;;;25.70;13.38;;;16.60;99.90;;;;;;5020828;28;20033;-55
2023/06/07 06:31:18;;;;;;;19.80;10.85;;;16.70;99.90;;;;;;5020850;28;20545;-57
2023/06/07 06:33:44;;;;;;;22.85;12.10;;;16.70;99.90;;;;;;5023253;28;20057;-55
2023/06/07 06:36:11;;;;;;;23.88;12.43;;;16.70;99.90;;;;;;5022724;28;20077;-54
2023/06/07 06:38:37;;;;;;;21.73;11.98;;;16.70;99.90;;;;;;5021790;28;20042;-55
2023/06/07 06:41:02;;;;;;;24.10;13.35;;;16.70;99.90;;;;;;5022944;28;20042;-54
2023/06/07 06:43:28;;;;;;;34.38;12.02;;;16.80;99.90;;;;;;5012284;28;20088;-55
2023/06/07 06:45:54;;;;;;;26.80;11.63;;;16.80;99.90;;;;;;5017906;28;20638;-55
2023/06/07 06:48:20;;;;;;;25.92;11.80;;;17.30;99.90;;;;;;5019727;28;20467;-55
2023/06/07 06:50:47;;;;;;;19.05;12.07;;;16.80;99.90;;;;;;5014978;28;20494;-56
2023/06/07 06:53:13;;;;;;;21.85;11.07;;;16.80;99.90;;;;;;5015204;28;20046;-56
2023/06/07 06:55:39;;;;;;;22.00;11.68;;;16.90;99.90;;;;;;5020991;28;20054;-57
2023/06/07 06:58:05;;;;;;;30.88;12.50;;;16.90;99.90;;;;;;5022663;28;20186;-55
2023/06/07 07:00:35;;;;;;;25.13;12.07;;;16.90;99.90;;;;;;5022362;28;20631;-55
2023/06/07 07:03:04;;;;;;;16.98;9.23;;;16.90;99.90;;;;;;5024493;28;20065;-56
2023/06/07 07:05:30;;;;;;;18.10;11.95;;;17.00;99.90;;;;;;5022224;28;20550;-55
2023/06/07 07:07:56;;;;;;;26.38;12.90;;;17.00;99.90;;;;;;5017510;28;20046;-55
2023/06/07 07:10:22;;;;;;;20.67;10.10;;;17.00;99.90;;;;;;5024418;28;21567;-55
2023/06/07 07:12:47;;;;;;;23.50;12.80;;;17.10;99.90;;;;;;5024564;28;20085;-55
2023/06/07 07:15:13;;;;;;;24.27;13.30;;;17.10;99.90;;;;;;5024615;28;20052;-55
2023/06/07 07:17:49;;;;;;;26.90;12.10;;;17.10;99.90;;;;;;5024993;28;20546;-55
2023/06/07 07:20:17;;;;;;;26.42;11.07;;;17.20;99.90;;;;;;5025914;28;20110;-55
2023/06/07 07:22:44;;;;;;;26.95;11.98;;;17.20;99.90;;;;;;5023825;28;20084;-56
2023/06/07 07:25:10;;;;;;;27.48;11.63;;;17.30;99.90;;;;;;5025305;28;20141;-56
2023/06/07 07:27:36;;;;;;;21.92;11.55;;;17.30;99.90;;;;;;5024665;28;20124;-55
2023/06/07 07:30:04;;;;;;;27.02;11.90;;;17.30;99.90;;;;;;5024456;28;20042;-55
2023/06/07 07:32:30;;;;;;;20.90;11.45;;;17.40;99.90;;;;;;5038145;28;20045;-55
2023/06/07 07:34:56;;;;;;;19.08;11.13;;;17.40;99.90;;;;;;5022342;28;20041;-55
2023/06/07 07:37:21;;;;;;;27.23;12.55;;;17.50;99.90;;;;;;5038633;28;20037;-55
2023/06/07 07:39:47;;;;;;;25.13;11.55;;;17.50;99.90;;;;;;5020221;28;20045;-56
2023/06/07 07:42:13;;;;;;;20.17;11.90;;;17.50;99.90;;;;;;5021605;28;20045;-55
2023/06/07 07:44:39;;;;;;;24.92;11.65;;;17.60;99.90;;;;;;5024456;28;20515;-57
2023/06/07 07:47:05;;;;;;;19.73;11.73;;;17.60;99.90;;;;;;5021662;28;20098;-57
2023/06/07 07:49:31;;;;;;;20.05;11.45;;;17.50;99.90;;;;;;5023686;28;20042;-57
2023/06/07 07:51:57;;;;;;;22.38;10.32;;;17.60;99.90;;;;;;5021903;28;20085;-57
2023/06/07 07:54:23;;;;;;;22.92;10.88;;;17.60;99.90;;;;;;5022808;28;20538;-58
2023/06/07 07:56:49;;;;;;;23.52;10.63;;;17.70;99.90;;;;;;5023293;28;20041;-58
2023/06/07 07:59:14;;;;;;;20.55;10.90;;;17.70;99.90;;;;;;5024622;28;20128;-58
2023/06/07 08:01:40;;;;;;;19.80;9.65;;;17.80;99.90;;;;;;5021657;28;20666;-57
2023/06/07 08:04:06;;;;;;;22.40;10.88;;;17.80;99.90;;;;;;5025186;28;20069;-57
2023/06/07 08:06:32;;;;;;;24.85;10.23;;;17.90;99.90;;;;;;5023957;28;20069;-57
2023/06/07 08:08:58;;;;;;;16.77;9.55;;;17.90;99.90;;;;;;5020417;28;20041;-57
2023/06/07 08:11:25;;;;;;;12.40;7.60;;;17.90;99.90;;;;;;5021730;28;20045;-57
2023/06/07 08:13:51;;;;;;;19.38;10.05;;;17.90;99.90;;;;;;5023945;28;20053;-57
2023/06/07 08:16:17;;;;;;;22.23;9.82;;;18.00;99.90;;;;;;5020131;28;20784;-57
2023/06/07 08:18:45;;;;;;;18.15;10.27;;;18.00;99.90;;;;;;5023937;28;20077;-58
2023/06/07 08:21:12;;;;;;;23.27;11.07;;;18.00;99.90;;;;;;5024077;28;20048;-57
2023/06/07 08:23:38;;;;;;;21.38;11.27;;;18.10;99.90;;;;;;5023817;28;20130;-57
2023/06/07 08:26:03;;;;;;;19.85;10.77;;;18.60;99.90;;;;;;5021575;28;20052;-58
2023/06/07 08:28:29;;;;;;;17.00;8.65;;;18.10;99.90;;;;;;5025574;28;20121;-57
2023/06/07 08:30:55;;;;;;;21.70;11.40;;;18.20;99.90;;;;;;5021630;28;20141;-57
2023/06/07 08:33:21;;;;;;;17.92;9.80;;;18.20;99.90;;;;;;5024165;28;20120;-58
2023/06/07 08:35:47;;;;;;;18.77;8.63;;;18.30;99.90;;;;;;5025522;28;20038;-58
2023/06/07 08:38:12;;;;;;;24.98;11.23;;;18.30;99.90;;;;;;5023548;28;20045;-57
2023/06/07 08:40:38;;;;;;;21.70;10.30;;;18.40;99.90;;;;;;5021960;28;20053;-58
2023/06/07 08:43:05;;;;;;;21.27;12.10;;;18.40;99.90;;;;;;5025578;28;20045;-57
2023/06/07 08:45:31;;;;;;;25.70;11.00;;;18.40;99.90;;;;;;5009150;28;20112;-58
2023/06/07 08:47:58;;;;;;;21.90;10.68;;;18.50;99.90;;;;;;5023156;28;20081;-58
2023/06/07 08:50:24;;;;;;;18.90;10.30;;;18.50;99.90;;;;;;5025895;28;20037;-57
2023/06/07 08:52:55;;;;;;;16.95;9.82;;;18.50;99.90;;;;;;5028625;28;20070;-57
2023/06/07 08:55:21;;;;;;;18.65;10.32;;;18.60;99.90;;;;;;5027817;28;20044;-58
2023/06/07 08:57:52;;;;;;;20.50;9.45;;;18.60;99.90;;;;;;5025644;28;20214;-58
2023/06/07 09:00:23;;;;;;;20.02;9.77;;;18.60;99.90;;;;;;5028286;28;20125;-58
2023/06/07 09:02:51;;;;;;;13.35;9.27;;;18.70;99.90;;;;;;5027665;28;20516;-58
2023/06/07 09:05:18;;;;;;;10.93;6.70;;;18.80;99.90;;;;;;5025484;28;20120;-58
2023/06/07 09:07:44;;;;;;;16.77;8.45;;;18.80;99.90;;;;;;5025974;28;20045;-61
2023/06/07 09:10:10;;;;;;;20.05;9.13;;;18.80;99.90;;;;;;5024332;28;20603;-57
2023/06/07 09:12:36;;;;;;;18.38;8.18;;;18.90;99.90;;;;;;5026078;28;20055;-57
2023/06/07 09:15:04;;;;;;;32.80;10.90;;;18.90;99.90;;;;;;5026188;28;21258;-57
2023/06/07 09:17:49;;;;;;;20.45;8.40;;;18.90;99.90;;;;;;5028232;28;20048;-57
2023/06/07 09:20:23;;;;;;;10.18;5.40;;;19.00;99.90;;;;;;5027679;28;20073;-58
2023/06/07 09:23:04;;;;;;;13.45;8.45;;;19.10;99.90;;;;;;5026523;28;20046;-58
2023/06/07 09:25:30;;;;;;;21.33;8.13;;;19.10;99.90;;;;;;5025161;28;20045;-58
2023/06/07 09:27:57;;;;;;;19.13;8.77;;;19.10;99.90;;;;;;5027509;28;20045;-58
2023/06/07 09:30:23;;;;;;;20.33;6.95;;;19.20;99.90;;;;;;5026202;28;20053;-58
2023/06/07 09:32:49;;;;;;;15.85;9.38;;;19.30;99.90;;;;;;5026676;28;20112;-58
2023/06/07 09:35:17;;;;;;;12.68;7.47;;;19.30;99.90;;;;;;5026187;28;20077;-58
2023/06/07 09:37:59;;;;;;;16.73;8.07;;;19.30;99.90;;;;;;5025424;28;20121;-58
2023/06/07 09:40:25;;;;;;;12.50;7.13;;;19.40;99.90;;;;;;5025046;28;20046;-58
2023/06/07 09:42:59;;;;;;;20.90;9.40;;;19.40;99.90;;;;;;5024750;28;20054;-57
2023/06/07 09:45:26;;;;;;;27.40;10.27;;;19.50;99.90;;;;;;5025175;28;20536;-59
2023/06/07 09:48:07;;;;;;;15.93;6.97;;;19.50;99.90;;;;;;5024934;28;20373;-57
2023/06/07 09:50:32;;;;;;;15.65;7.93;;;19.60;99.90;;;;;;5026580;28;20619;-59
2023/06/07 09:52:59;;;;;;;23.25;8.55;;;19.60;99.90;;;;;;5026706;28;20081;-57
2023/06/07 09:55:27;;;;;;;18.60;8.38;;;19.70;99.90;;;;;;5025251;28;20034;-58
2023/06/07 09:57:53;;;;;;;13.10;6.47;;;19.70;99.90;;;;;;5023960;28;20041;-58
2023/06/07 10:00:19;;;;;;;12.93;7.03;;;19.80;99.90;;;;;;5022181;28;20050;-59
2023/06/07 10:02:48;;;;;;;18.52;7.15;;;19.80;99.90;;;;;;5019117;28;20054;-58
2023/06/07 10:05:15;;;;;;;13.27;5.88;;;19.90;99.90;;;;;;5023669;28;20044;-58
2023/06/07 10:07:46;;;;;;;13.23;5.95;;;19.90;99.90;;;;;;5025442;28;20320;-58
2023/06/07 10:10:15;;;;;;;11.95;6.93;;;20.00;99.90;;;;;;5025324;28;20472;-58
2023/06/07 10:12:43;;;;;;;18.60;6.47;;;20.10;99.90;;;;;;5026064;28;20049;-59
2023/06/07 10:15:29;;;;;;;18.80;7.20;;;20.10;99.90;;;;;;5026516;28;20042;-58
2023/06/07 10:18:06;;;;;;;12.75;5.93;;;20.10;99.90;;;;;;5025363;28;20050;-58
2023/06/07 10:20:38;;;;;;;12.60;6.47;;;20.20;99.90;;;;;;5023784;28;20038;-58
2023/06/07 10:23:06;;;;;;;18.00;6.88;;;20.20;99.90;;;;;;5025812;28;20049;-58
2023/06/07 10:25:59;;;;;;;20.75;7.55;;;20.30;99.90;;;;;;5025234;28;20050;-58
2023/06/07 10:28:39;;;;;;;12.02;6.45;;;20.30;99.90;;;;;;5009723;28;20136;-57
2023/06/07 10:31:09;;;;;;;11.57;6.07;;;20.40;99.90;;;;;;5027252;28;20042;-58
2023/06/07 10:33:36;;;;;;;14.40;5.75;;;20.40;99.90;;;;;;5025166;28;20073;-58
2023/06/07 10:36:02;;;;;;;9.48;5.55;;;20.40;99.90;;;;;;5025059;28;20133;-58
2023/06/07 10:38:32;;;;;;;6.90;4.97;;;20.50;99.90;;;;;;5024816;28;20048;-58
2023/06/07 10:41:01;;;;;;;10.38;6.60;;;20.50;99.90;;;;;;5024752;28;20542;-58
2023/06/07 10:43:29;;;;;;;15.15;6.47;;;20.60;99.90;;;;;;5025082;28;20034;-58
2023/06/07 10:46:20;;;;;;;11.68;6.45;;;20.60;99.90;;;;;;5026359;28;20057;-57
2023/06/07 10:48:46;;;;;;;12.15;7.20;;;20.70;99.90;;;;;;5024197;28;20145;-58
2023/06/07 10:51:12;;;;;;;9.18;6.07;;;20.70;99.90;;;;;;5026431;28;20048;-58
2023/06/07 10:53:51;;;;;;;8.15;5.35;;;20.70;99.90;;;;;;5023502;28;20049;-57
2023/06/07 10:56:29;;;;;;;10.70;6.30;;;20.80;99.90;;;;;;5025869;28;20631;-58
2023/06/07 10:58:57;;;;;;;12.88;7.30;;;20.80;99.90;;;;;;5024807;28;20041;-58
2023/06/07 11:01:25;;;;;;;17.02;5.88;;;20.90;99.90;;;;;;5023784;28;20562;-57
2023/06/07 11:03:51;;;;;;;15.35;6.00;;;20.90;99.90;;;;;;5014083;28;21386;-57
2023/06/07 11:06:17;;;;;;;15.35;7.22;;;21.00;99.90;;;;;;5014766;28;20120;-57
2023/06/07 11:08:43;;;;;;;9.07;6.18;;;21.00;99.90;;;;;;5021777;28;20045;-58
2023/06/07 11:11:40;;;;;;;11.38;6.15;;;21.10;99.90;;;;;;5020670;28;20044;-58
2023/06/07 11:14:05;;;;;;;13.93;7.10;;;21.10;99.90;;;;;;5022544;28;20085;-59
2023/06/07 11:16:31;;;;;;;12.48;6.63;;;21.10;99.90;;;;;;5018470;28;20037;-58
2023/06/07 11:19:05;;;;;;;13.85;6.30;;;21.10;99.90;;;;;;5016580;28;21098;-58
2023/06/07 11:21:53;;;;;;;12.52;6.68;;;21.20;99.90;;;;;;5024277;28;20046;-58
2023/06/07 11:24:20;;;;;;;15.27;6.97;;;21.20;99.90;;;;;;5020283;28;20057;-59
2023/06/07 11:26:47;;;;;;;11.02;6.53;;;21.30;99.90;;;;;;5023106;28;20088;-59
2023/06/07 11:29:15;;;;;;;23.23;8.07;;;21.40;99.90;;;;;;5022381;28;20127;-58
2023/06/07 11:31:41;;;;;;;12.73;6.57;;;21.50;99.90;;;;;;5023839;28;20084;-59
2023/06/07 11:34:07;;;;;;;9.80;6.35;;;21.50;99.90;;;;;;5025639;28;20042;-57
2023/06/07 11:36:33;;;;;;;11.20;6.57;;;21.60;99.90;;;;;;5021540;28;20042;-58
2023/06/07 11:39:02;;;;;;;12.80;8.27;;;21.70;99.90;;;;;;5023762;28;20097;-59
2023/06/07 11:41:28;;;;;;;12.70;7.10;;;21.80;99.90;;;;;;5023379;28;20868;-58
2023/06/07 11:43:56;;;;;;;11.98;5.75;;;21.80;99.90;;;;;;5026637;28;20088;-58
2023/06/07 11:46:22;;;;;;;14.43;6.68;;;21.80;99.90;;;;;;5023880;28;20173;-58
2023/06/07 11:48:48;;;;;;;11.77;6.05;;;21.80;99.90;;;;;;5021891;28;20500;-58
2023/06/07 11:51:13;;;;;;;10.52;6.72;;;21.90;99.90;;;;;;5019385;28;20504;-58
2023/06/07 11:53:41;;;;;;;10.95;6.35;;;21.90;99.90;;;;;;5020827;28;20140;-58
2023/06/07 11:56:08;;;;;;;7.63;5.07;;;22.00;99.90;;;;;;5022575;28;20041;-58
2023/06/07 11:58:36;;;;;;;14.95;6.60;;;22.00;99.90;;;;;;5021261;28;20045;-58
2023/06/07 12:01:03;;;;;;;10.63;6.13;;;22.00;99.90;;;;;;5055465;28;21790;-58
2023/06/07 12:03:29;;;;;;;10.40;5.85;;;22.10;99.90;;;;;;5023913;28;20069;-59
2023/06/07 12:05:55;;;;;;;13.23;5.70;;;22.10;99.50;;;;;;5021735;28;20554;-58
2023/06/07 12:08:22;;;;;;;9.98;6.35;;;22.20;99.40;;;;;;5023121;28;20072;-59
2023/06/07 12:10:52;;;;;;;11.93;6.68;;;22.20;99.30;;;;;;5023476;28;20042;-58
2023/06/07 12:13:20;;;;;;;12.65;5.75;;;22.30;99.00;;;;;;5037172;28;20041;-58
2023/06/07 12:15:53;;;;;;;11.25;5.85;;;22.40;98.70;;;;;;5020336;28;20523;-58
2023/06/07 12:18:22;;;;;;;9.48;5.50;;;22.40;98.50;;;;;;5020025;28;20053;-59
2023/06/07 12:21:00;;;;;;;12.77;5.70;;;22.50;98.20;;;;;;5021754;28;20052;-59
2023/06/07 12:23:26;;;;;;;16.08;5.97;;;22.50;97.60;;;;;;5023999;28;20050;-59
2023/06/07 12:26:17;;;;;;;12.23;5.97;;;22.50;97.50;;;;;;5024017;28;20539;-59
2023/06/07 12:28:43;;;;;;;12.40;4.82;;;22.60;97.10;;;;;;5023362;28;20104;-59
2023/06/07 12:31:25;;;;;;;11.45;5.95;;;22.60;96.90;;;;;;5023614;28;20044;-59
2023/06/07 12:33:58;;;;;;;12.05;5.70;;;22.70;96.60;;;;;;5024014;28;20075;-59
2023/06/07 12:36:28;;;;;;;10.90;6.38;;;22.70;96.40;;;;;;5036113;28;20130;-59
2023/06/07 12:38:54;;;;;;;14.38;6.15;;;22.70;96.40;;;;;;5024972;28;20043;-58